< Typhoon 199422 1994 Season Typhoon 199424 >
Typhoon 199423 (LUKE)
General InformationTrack Information on Google MapsDetailed Wind InformationList of All Images || NewsDisaster Info.ResourceGoogle EarthGE AnimationAtom FeedGeoJSON
Detalied Best Track (Time Zone = UTC)
Year Month Day Hour Lat. Long. Pressure (hPa) Wind (kt) Class Image Chart
1994 9 7 12 14.2 129.0 1002 0 2 Image Chart
1994 9 7 18 14.3 128.5 1002 0 2 Image Chart
1994 9 8 00 14.4 128.0 1002 0 2 Image Chart
1994 9 8 06 14.5 127.5 996 35 3 Image Chart
1994 9 8 12 14.6 126.8 996 35 3 Image Chart
1994 9 8 18 15.0 126.1 996 35 3 Image Chart
1994 9 9 00 15.5 126.0 996 35 3 Image Chart
1994 9 9 06 16.7 126.8 996 35 3 Image Chart
1994 9 9 12 17.8 126.1 996 35 3 Image Chart
1994 9 9 18 18.2 124.8 996 35 3 Image Chart
1994 9 10 00 18.3 123.0 996 35 3 Image Chart
1994 9 10 06 18.5 121.5 996 35 3 Image Chart
1994 9 10 12 18.6 120.5 994 40 3 Image Chart
1994 9 10 18 18.7 119.5 994 40 3 Image Chart
1994 9 11 00 18.9 118.5 994 40 3 Image Chart
1994 9 11 06 19.5 117.7 994 40 3 Image Chart
1994 9 11 12 20.0 116.4 996 40 3 Image Chart
1994 9 11 18 20.0 114.9 996 40 3 Image Chart
1994 9 12 00 19.8 113.4 994 40 3 Image Chart
1994 9 12 06 19.4 112.3 990 45 3 Image Chart
1994 9 12 12 19.1 111.2 990 45 3 Image Chart
1994 9 12 18 18.8 110.2 990 45 3 Image Chart
1994 9 13 00 18.8 108.8 992 40 3 Image Chart
1994 9 13 06 18.9 107.7 994 35 3 Image Chart
1994 9 13 12 19.0 106.9 998 0 2 Image Chart
1994 9 13 18 19.0 106.0 1000 0 2 Image Chart
1994 9 14 00 19.0 104.0 1004 0 2 Image Chart
1994 9 14 06 19.0 103.5 1004 0 2 Image Chart
1994 9 14 12 19.0 103.0 1004 0 2 Image Chart
Japan Meteorological Agency Best Track Data | Correction Date : 1995-01-30
< Typhoon 199422 1994 Season Typhoon 199424 >

Help